Bookmark and Share
Track history (hours):
 

Eurocargo Venezia

Last reported at 2014-Apr-24 02:33 UTC. Time now 2014-Apr-24 04:26 UTC.
Position N 40°58' E 013°18'.

Length 200 m; draft 7.1 m.

Type: Ship (hazmat cat A). MMSI: 247297200.

NotesDate/timePositionNaut miles runAvg speedWind from/ knotsBaromVisibWave heightAir tempDewpointWater temp
2014-Apr-24 02:33N 40°58' E 013°18'1919.0
2014-Apr-24 01:33N 40°46' E 013°37'1919.0
2014-Apr-24 00:33N 40°30' E 013°51'1919.2
2014-Apr-23 23:33N 40°14' E 014°06'12118.9
2014-Apr-23 17:08N 38°34' E 015°33'1218.1
2014-Apr-23 16:29N 38°23' E 015°39'1314.1
2014-Apr-23 15:33N 38°10' E 015°37'101 4.8
2014-Apr-22 18:32N 36°31' E 015°09'49 2.7
2014-Apr-22 00:15N 35°53' E 014°30'0 0.0
2014-Apr-21 17:27N 35°53' E 014°30'0 0.0
2014-Apr-21 16:33N 35°53' E 014°30'0 0.1
2014-Apr-21 13:27N 35°53' E 014°31'0 0.0
2014-Apr-21 12:33N 35°53' E 014°31'8 0.9
2014-Apr-21 03:30N 36°01' E 014°31'2216.1
2014-Apr-21 02:07N 36°15' E 014°10'917.0
2014-Apr-21 01:33N 36°21' E 014°01'1716.8
2014-Apr-21 00:34N 36°32' E 013°45'1716.5
2014-Apr-20 23:34N 36°43' E 013°29'1616.5
2014-Apr-20 22:33N 36°53' E 013°13'1615.7
2014-Apr-20 21:33N 37°03' E 012°58'39516.5
2014-Apr-19 21:34N 43°07' E 009°37'1616.3
2014-Apr-19 20:33N 43°23' E 009°31'1616.2
2014-Apr-19 19:33N 43°38' E 009°23'1616.4
2014-Apr-19 18:34N 43°53' E 009°14'1616.5
2014-Apr-19 17:34N 44°08' E 009°05'1616.3
2014-Apr-19 16:33N 44°23' E 008°57'3 2.4
2014-Apr-19 15:27N 44°24' E 008°53'0 0.0
2014-Apr-19 14:33N 44°24' E 008°53'0 0.0
2014-Apr-19 13:33N 44°24' E 008°53'0 0.0
2014-Apr-19 12:24N 44°24' E 008°53'0 0.0
2014-Apr-19 11:33N 44°24' E 008°53'0 0.0
2014-Apr-19 10:33N 44°24' E 008°53'0 0.0
2014-Apr-19 09:33N 44°24' E 008°53'0 0.0
2014-Apr-19 08:33N 44°24' E 008°53'0 0.0
2014-Apr-19 07:27N 44°24' E 008°53'0 0.0
2014-Apr-19 06:33N 44°24' E 008°53'0 0.0
2014-Apr-19 05:33N 44°24' E 008°53'4 3.9
2014-Apr-19 04:33N 44°22' E 008°58'1717.1
2014-Apr-19 03:34N 44°09' E 009°13'1818.2
2014-Apr-19 02:34N 43°55' E 009°29'1817.7
2014-Apr-19 01:33N 43°42' E 009°46'1918.5
2014-Apr-19 00:34N 43°28' E 010°02'1919.1
2014-Apr-18 23:34N 43°11' E 010°16'1919.2
2014-Apr-18 22:33N 42°54' E 010°28'35518.7
2014-Apr-18 03:33N 38°25' E 015°34'1413.9
2014-Apr-18 02:33N 38°11' E 015°37'1915.5
2014-Apr-18 01:18N 37°53' E 015°27'153 3.0
2014-Apr-15 22:29N 40°15' E 014°12'1617.8
2014-Apr-15 21:33N 40°28' E 014°00'1817.7
2014-Apr-15 20:33N 40°41' E 013°45'1716.7
2014-Apr-15 19:33N 40°53' E 013°29'20615.9
2014-Apr-15 06:34N 43°21' E 010°15'1211.8
2014-Apr-15 05:34N 43°33' E 010°17'2 1.0
2014-Apr-15 03:33N 43°35' E 010°18'0 0.0
2014-Apr-15 02:33N 43°35' E 010°18'0 0.0
2014-Apr-15 01:33N 43°35' E 010°18'0 0.0
2014-Apr-15 00:33N 43°35' E 010°18'0 0.0
2014-Apr-14 23:33N 43°35' E 010°18'3 3.3
2014-Apr-14 22:34N 43°32' E 010°16'1414.5
2014-Apr-14 21:34N 43°32' E 009°56'1918.9
2014-Apr-14 20:34N 43°46' E 009°38'1918.7
2014-Apr-14 19:34N 44°00' E 009°21'1918.9
2014-Apr-14 18:34N 44°15' E 009°04'1212.4
2014-Apr-14 17:34N 44°24' E 008°53'0 0.1
2014-Apr-14 16:30N 44°24' E 008°53'0 0.0
2014-Apr-14 14:30N 44°24' E 008°53'0 0.0
2014-Apr-14 13:30N 44°24' E 008°53'0 0.0
2014-Apr-14 11:30N 44°24' E 008°53'0 0.0
2014-Apr-14 10:30N 44°24' E 008°53'0 0.0
2014-Apr-14 09:30N 44°24' E 008°53'0 0.0
2014-Apr-14 07:30N 44°24' E 008°53'4 3.8
2014-Apr-14 06:33N 44°22' E 008°57'1716.6
2014-Apr-14 05:34N 44°09' E 009°12'  

Dump ship's entire track history

sailing weather and tide predictions

Eurocargo Venezia — IBKS — position and weather